MST,Max TemperatureF,Mean TemperatureF,Min TemperatureF,Max Dew PointF,MeanDew PointF,Min DewpointF,Max Humidity, Mean Humidity, Min Humidity, Max Sea Level PressureIn, Mean Sea Level PressureIn, Min Sea Level PressureIn, Max VisibilityMiles, Mean VisibilityMiles, Min VisibilityMiles, Max Wind SpeedMPH, Mean Wind SpeedMPH, Max Gust SpeedMPH,PrecipitationIn, CloudCover, Events, WindDirDegrees
2011-11-1,59,38,17,30,19,10,86,57,17,30.21,30.05,29.88,10,10,10,20,4,33,0.00,3,,237
2011-11-2,33,24,15,27,18,10,86,68,48,30.49,30.28,29.91,10,9,0,17,8,25,0.03,4,,218
2011-11-3,35,20,6,19,11,1,92,69,48,30.50,30.35,30.19,10,10,10,9,4,,0.00,0,,56
2011-11-4,48,29,10,28,17,7,92,66,40,30.19,30.02,29.80,10,10,10,17,3,21,0.00,1,,63
2011-11-5,44,34,24,30,23,18,86,72,49,29.81,29.62,29.47,10,9,1,31,5,41,0.00,5,,245
2011-11-6,37,29,21,16,13,10,74,51,33,30.00,29.93,29.85,10,10,10,12,5,16,0.00,4,,212
2011-11-7,39,28,17,25,16,10,80,63,36,30.03,29.97,29.89,10,10,1,24,5,29,0.00,2,,27
2011-11-8,37,27,17,18,15,10,80,60,41,30.29,30.13,29.97,10,10,10,16,4,22,0.00,3,,255
2011-11-9,39,24,8,12,8,3,85,58,28,30.54,30.46,30.38,10,10,8,8,2,,0.00,0,,258
2011-11-10,42,25,8,9,6,1,85,55,19,30.60,30.47,30.33,10,10,9,12,1,,0.00,0,,6
2011-11-11,41,24,6,10,4,0,79,53,21,30.34,30.19,29.99,10,10,10,7,1,,0.00,0,,338
2011-11-12,48,32,17,21,14,7,74,50,20,29.97,29.90,29.78,10,10,10,22,5,32,0.00,7,,301
2011-11-13,42,38,33,30,25,19,81,61,42,29.86,29.82,29.77,10,10,5,22,14,36,0.00,7,,256
2011-11-14,44,30,15,21,16,9,80,56,25,29.96,29.92,29.85,10,10,10,23,6,30,0.00,2,,291
2011-11-15,46,32,19,23,16,10,80,50,23,30.03,29.98,29.94,10,10,10,20,7,29,0.00,4,,293
2011-11-16,37,26,15,21,11,1,93,56,24,30.32,30.19,30.05,10,10,2,15,4,18,0.00,0,,292
2011-11-17,44,26,8,12,7,1,85,56,23,30.34,30.24,30.07,10,10,10,9,1,,0.00,0,,11
2011-11-18,48,29,10,16,11,3,86,53,22,30.03,29.84,29.68,10,10,9,10,2,,0.00,0,,239
2011-11-19,46,34,21,19,17,10,69,49,31,29.96,29.82,29.66,10,10,10,20,7,31,0.00,4,,270
2011-11-20,48,32,17,19,15,10,79,49,24,30.14,30.07,29.97,10,10,10,14,3,22,0.00,1,,236
2011-11-21,,,,,,,,,,,,,,,,,,,,,,
2011-11-22,46,32,19,19,16,12,74,52,34,30.47,30.39,30.30,10,10,10,18,9,22,0.00,1,,267
2011-11-23,46,29,12,19,14,9,92,62,29,30.51,30.40,30.30,10,10,9,7,1,,0.00,0,,28
2011-11-24,48,27,6,16,11,1,85,55,22,30.32,30.19,30.07,10,10,10,7,2,,0.00,1,,13
2011-11-25,44,36,28,30,20,9,93,58,36,30.17,30.03,29.95,10,9,2,21,5,26,0.00,6,,274
2011-11-26,35,24,12,9,1,0,62,39,23,30.62,30.46,30.18,10,10,10,18,8,23,0.00,0,,240
2011-11-27,42,24,5,9,4,-6,79,53,23,30.67,30.57,30.49,10,10,7,7,1,,0.00,0,,10
2011-11-28,46,26,6,14,8,1,85,57,23,30.54,30.45,30.34,10,10,10,8,0,,0.00,0,,345
2011-11-29,50,34,17,16,12,7,74,52,22,30.43,30.36,30.31,10,10,8,10,2,,0.00,2,,234
2011-11-30,46,26,6,14,8,1,85,60,25,30.33,30.14,29.89,10,10,8,5,1,,0.00,0,,111